Milos, Greece
Current Conditions -  °F | °C
As of 11:50 PM on Thursday 23 Oct 2014 (Local Time) from LGSO Reporting Station
NA  
Wind Chill: 63°   Ceiling: NA
Heat Index: 63°   Visibility: NA
Dew Point: 46°   Wind: 3mph
Humidity: 55%   Direction: NA
Pressure: 29.8"   Gusts: NA
Location:  36.75°N, 24.43°E
Report Text: LGSO 232050Z AUTO VRB03KT //// // ////// 17/08 Q1009 RE//
Loading
Personal Weather Stations






























Interactive Weather Map
Tropical Storm Tracking
New forecast layout! Learn more

10-Day Weather Forecast

Advertisements
Track Severe Weather on mobile